Forney's Hourly Summary for Saturday, March 18, 2017
Hour Temp
(f)
RH
(%)
Solar Rad.
(MJ/m2)
Rainfall
(in)
Wind
(mph)
3/18/2017 12:00 AM 70 64 0 0 3.98
3/18/2017 1:00 AM 70 66 0 0 5.62
3/18/2017 2:00 AM 67 70 0 0 5.74
3/18/2017 3:00 AM 65 77 0 0 5.03
3/18/2017 4:00 AM 64 82 0 0 2.71
3/18/2017 5:00 AM 63 86 0 0 1.86
3/18/2017 6:00 AM 62 92 0 0 1.61
3/18/2017 7:00 AM 61 98 0 0 2.26
3/18/2017 8:00 AM 62 99 0.01 0 2.23
3/18/2017 9:00 AM 62 96 0.15 0 3.31
3/18/2017 10:00 AM 64 90 0.38 0 3.19
3/18/2017 11:00 AM 66 82 0.6 0 3.92
3/18/2017 12:00 PM 68 76 0.87 0 3.35
3/18/2017 1:00 PM 71 67 1.61 0 2.76
3/18/2017 2:00 PM 75 62 2.49 0 2.94
3/18/2017 3:00 PM 77 60 2.11 0 3.44
3/18/2017 4:00 PM 78 57 2.41 0 3.66
3/18/2017 5:00 PM 79 54 1.68 0 4.01
3/18/2017 6:00 PM 79 54 1.17 0 3.95
3/18/2017 7:00 PM 77 57 0.45 0 3.54
3/18/2017 8:00 PM 75 59 0.04 0 1.34
3/18/2017 9:00 PM 71 64 0 0 0.28
3/18/2017 10:00 PM 69 72 0 0 0.22
3/18/2017 11:00 PM 68 74 0 0 0.47
Data Summary 69 73 13.97 0.00 2.98